Time;durP1;ratioP1;P1;durP2;ratioP2;P2;SDS_P1;SDS_P2;PMS_P1;PMS_P2;Temp;Humidity;BMP_temperature;BMP_pressure;BME280_temperature;BME280_humidity;BME280_pressure;Samples;Min_cycle;Max_cycle;Signal;HPM_P1;HPM_P2
2022/04/22 03:00:55;;;;;;;17.90;8.90;;;9.00;99.90;;;;;;5801480;23;20045;-81
2022/04/22 03:03:21;;;;;;;20.70;9.48;;;9.00;99.90;;;;;;5015985;28;20041;-79
2022/04/22 03:05:46;;;;;;;23.63;10.38;;;9.00;99.90;;;;;;5015340;28;20034;-80
2022/04/22 03:08:12;;;;;;;20.98;9.68;;;8.90;99.90;;;;;;5015305;28;20054;-82
2022/04/22 03:10:37;;;;;;;18.90;9.23;;;8.90;99.90;;;;;;5016995;28;20049;-83
2022/04/22 03:13:04;;;;;;;22.92;10.40;;;8.90;99.90;;;;;;5015126;28;20042;-81
2022/04/22 03:15:31;;;;;;;18.13;9.30;;;8.90;99.90;;;;;;5014677;28;20038;-83
2022/04/22 03:17:56;;;;;;;20.10;10.07;;;8.80;99.90;;;;;;5014810;28;20041;-82
2022/04/22 03:20:22;;;;;;;18.20;9.68;;;8.80;99.90;;;;;;5014334;28;20434;-81
2022/04/22 03:22:48;;;;;;;21.67;9.00;;;8.80;99.90;;;;;;5014493;28;20145;-84
2022/04/22 03:25:13;;;;;;;18.60;9.40;;;8.80;99.90;;;;;;5014761;28;20095;-80
2022/04/22 03:27:39;;;;;;;18.98;9.80;;;8.70;99.90;;;;;;5014657;28;20397;-82
2022/04/22 03:30:05;;;;;;;15.70;8.23;;;8.70;99.90;;;;;;5015757;28;20091;-81
2022/04/22 03:32:31;;;;;;;16.80;8.18;;;8.70;99.90;;;;;;5014580;28;20045;-83
2022/04/22 03:34:56;;;;;;;17.27;9.02;;;8.70;99.90;;;;;;5015021;28;20042;-82
2022/04/22 03:37:22;;;;;;;19.60;8.65;;;8.70;99.90;;;;;;5015045;28;20393;-80
2022/04/22 03:39:47;;;;;;;19.75;8.15;;;8.70;99.90;;;;;;5015223;28;20076;-83
2022/04/22 03:42:13;;;;;;;20.85;8.65;;;8.70;99.90;;;;;;5015536;28;20048;-83
2022/04/22 03:44:39;;;;;;;15.18;7.53;;;8.70;99.90;;;;;;5016155;28;20509;-83
2022/04/22 03:47:07;;;;;;;22.95;8.20;;;8.60;99.90;;;;;;5015053;28;20069;-82
2022/04/22 03:49:33;;;;;;;18.45;7.82;;;8.60;99.90;;;;;;5014167;28;20095;-81
2022/04/22 03:51:59;;;;;;;16.38;7.22;;;8.50;99.90;;;;;;5014706;28;20042;-79
2022/04/22 03:54:25;;;;;;;14.30;6.97;;;8.50;99.90;;;;;;5014011;28;20045;-82
2022/04/22 03:59:36;;;;;;;12.73;6.35;;;8.50;99.90;;;;;;5013752;28;20046;-81
2022/04/22 04:02:02;;;;;;;15.00;6.85;;;8.50;99.90;;;;;;5014763;28;20044;-82
2022/04/22 04:04:28;;;;;;;11.00;6.32;;;8.50;99.90;;;;;;5014215;28;20128;-82
2022/04/22 04:06:54;;;;;;;14.60;6.90;;;8.40;99.90;;;;;;5015900;28;20116;-82
2022/04/22 04:17:38;;;;;;;11.98;6.22;;;8.30;99.90;;;;;;5013286;28;20042;-80
2022/04/22 04:25:33;;;;;;;13.63;6.35;;;8.30;99.90;;;;;;5013611;28;20052;-82
2022/04/22 04:27:59;;;;;;;12.48;6.60;;;8.30;99.90;;;;;;4996900;28;20075;-82
2022/04/22 04:30:26;;;;;;;12.02;6.13;;;8.30;99.90;;;;;;5012823;28;20056;-80
2022/04/22 04:32:52;;;;;;;14.98;6.28;;;8.30;99.90;;;;;;5013346;28;20041;-81
2022/04/22 04:35:17;;;;;;;11.93;6.30;;;8.30;99.90;;;;;;5013669;28;20088;-81
2022/04/22 04:37:43;;;;;;;13.48;6.22;;;8.40;99.90;;;;;;5013664;28;20088;-82
2022/04/22 04:40:09;;;;;;;11.50;5.53;;;8.40;99.90;;;;;;5013471;28;20046;-81
2022/04/22 04:42:35;;;;;;;11.88;6.05;;;8.40;99.90;;;;;;5013554;28;20041;-80
2022/04/22 04:45:01;;;;;;;11.65;5.60;;;8.40;99.90;;;;;;5013884;28;20091;-83
2022/04/22 04:47:26;;;;;;;12.52;6.57;;;8.50;99.90;;;;;;5014165;28;20111;-83
2022/04/22 04:49:52;;;;;;;11.57;5.30;;;8.50;99.90;;;;;;5013866;28;20457;-80
2022/04/22 04:52:18;;;;;;;13.68;6.00;;;8.50;99.90;;;;;;5013480;28;20046;-78
2022/04/22 04:54:46;;;;;;;12.38;5.15;;;8.50;99.90;;;;;;5014549;28;20041;-83
2022/04/22 04:57:11;;;;;;;9.32;5.30;;;8.50;99.90;;;;;;5013331;28;20050;-80
2022/04/22 04:59:37;;;;;;;10.93;5.30;;;8.40;99.90;;;;;;4997278;28;20049;-82
2022/04/22 05:02:03;;;;;;;13.38;5.45;;;8.50;99.90;;;;;;5013171;28;20038;-82
2022/04/22 05:04:28;;;;;;;13.43;5.50;;;8.40;99.90;;;;;;5013715;28;20053;-83
2022/04/22 05:06:54;;;;;;;12.82;6.25;;;8.40;99.90;;;;;;5013262;28;20049;-80
2022/04/22 05:09:20;;;;;;;11.20;5.43;;;8.40;99.90;;;;;;5014958;28;20104;-82
2022/04/22 05:11:45;;;;;;;11.15;5.47;;;8.40;99.90;;;;;;5012394;28;20406;-82
2022/04/22 05:14:11;;;;;;;13.30;5.82;;;8.40;99.90;;;;;;4996464;28;20049;-82
2022/04/22 05:16:36;;;;;;;9.27;4.68;;;8.30;99.90;;;;;;5013421;28;20084;-82
2022/04/22 05:19:02;;;;;;;10.30;5.05;;;8.40;99.90;;;;;;5016176;28;20068;-81
2022/04/22 05:21:28;;;;;;;16.63;5.78;;;8.40;99.90;;;;;;5022096;28;20042;-82
2022/04/22 05:23:54;;;;;;;10.70;5.03;;;8.40;99.90;;;;;;5022657;28;20077;-76
2022/04/22 05:26:24;;;;;;;14.18;5.88;;;8.40;99.90;;;;;;5026269;28;20053;-81
2022/04/22 05:28:49;;;;;;;11.05;5.40;;;8.40;99.90;;;;;;5016214;28;20045;-82
2022/04/22 05:33:59;;;;;;;11.07;5.38;;;8.40;99.90;;;;;;5014615;28;20049;-82
2022/04/22 05:36:25;;;;;;;9.82;5.00;;;8.40;99.90;;;;;;5013210;28;20030;-81
2022/04/22 05:38:52;;;;;;;8.77;4.80;;;8.40;99.90;;;;;;5013953;28;20034;-82
2022/04/22 05:41:18;;;;;;;9.95;4.63;;;8.40;99.90;;;;;;5012951;28;20116;-81
2022/04/22 05:43:44;;;;;;;10.77;5.05;;;8.40;99.90;;;;;;5012568;28;20053;-83
2022/04/22 05:46:10;;;;;;;9.18;5.32;;;8.40;99.90;;;;;;5013757;28;20108;-80
2022/04/22 05:48:36;;;;;;;10.82;4.55;;;8.40;99.90;;;;;;5012640;28;20501;-82
2022/04/22 05:51:01;;;;;;;11.43;4.75;;;8.50;99.90;;;;;;5012289;28;20482;-80
2022/04/22 05:53:28;;;;;;;12.07;4.60;;;8.50;99.90;;;;;;4995809;28;20037;-81
2022/04/22 05:55:54;;;;;;;9.18;4.57;;;8.50;99.90;;;;;;5012276;28;20045;-82
2022/04/22 05:58:19;;;;;;;8.80;4.53;;;8.50;99.90;;;;;;5012129;28;20406;-80
2022/04/22 06:00:45;;;;;;;8.30;4.50;;;8.60;99.90;;;;;;5012195;28;20046;-82
2022/04/22 06:03:10;;;;;;;7.20;4.20;;;8.60;99.90;;;;;;5012103;28;20046;-83
2022/04/22 06:05:36;;;;;;;10.30;4.00;;;8.70;99.90;;;;;;5012364;28;20062;-81
2022/04/22 06:10:51;;;;;;;9.20;4.43;;;8.70;99.90;;;;;;5012072;28;20054;-81
2022/04/22 06:13:17;;;;;;;9.05;4.68;;;8.70;99.90;;;;;;5014032;28;20050;-83
2022/04/22 06:15:42;;;;;;;11.63;4.53;;;8.80;99.90;;;;;;4999094;28;20049;-79
2022/04/22 06:18:08;;;;;;;9.88;4.93;;;8.90;99.90;;;;;;5015402;28;20441;-81
2022/04/22 06:20:33;;;;;;;10.40;4.88;;;8.90;99.90;;;;;;4999519;28;20045;-82
2022/04/22 06:23:00;;;;;;;10.82;4.55;;;8.90;99.90;;;;;;5017017;28;20038;-80
2022/04/22 06:25:28;;;;;;;8.63;4.22;;;9.00;99.90;;;;;;5015925;28;20050;-82
2022/04/22 06:27:53;;;;;;;9.45;4.00;;;9.00;99.90;;;;;;4999655;28;20046;-80
2022/04/22 06:30:23;;;;;;;6.15;3.72;;;9.10;99.90;;;;;;5015534;28;20060;-83
2022/04/22 06:32:51;;;;;;;10.52;4.43;;;9.10;99.90;;;;;;5015296;28;20054;-80
2022/04/22 06:35:18;;;;;;;7.82;4.20;;;9.10;99.90;;;;;;5015087;28;20049;-81
2022/04/22 06:37:46;;;;;;;9.88;4.57;;;9.20;99.90;;;;;;5015175;28;20075;-81
2022/04/22 06:45:46;;;;;;;12.60;4.82;;;9.20;99.90;;;;;;5015102;28;19917;-82
2022/04/22 06:48:14;;;;;;;9.73;4.80;;;9.30;99.90;;;;;;5016464;28;20452;-81
2022/04/22 06:50:41;;;;;;;12.10;4.20;;;9.30;99.90;;;;;;5014704;28;20052;-82
2022/04/22 06:53:07;;;;;;;7.75;4.10;;;9.40;99.90;;;;;;5015089;28;20085;-81
2022/04/22 06:55:32;;;;;;;8.90;4.90;;;9.40;99.90;;;;;;5015001;28;20046;-84
2022/04/22 06:58:00;;;;;;;13.45;4.82;;;9.50;99.90;;;;;;5015964;28;20121;-81
2022/04/22 07:00:26;;;;;;;8.20;4.15;;;9.60;99.90;;;;;;4998204;28;20120;-82
2022/04/22 07:02:52;;;;;;;8.65;4.68;;;9.60;99.90;;;;;;5015179;28;20125;-82
2022/04/22 07:05:18;;;;;;;10.77;4.68;;;9.70;99.90;;;;;;5014965;28;20046;-81
2022/04/22 07:07:44;;;;;;;7.82;4.13;;;9.70;99.90;;;;;;5014684;28;20049;-83
2022/04/22 07:10:10;;;;;;;8.63;4.30;;;9.80;99.90;;;;;;5014832;28;20371;-82
2022/04/22 07:12:36;;;;;;;8.00;4.15;;;9.90;99.90;;;;;;5014815;28;20038;-81
2022/04/22 07:15:03;;;;;;;7.55;3.63;;;9.90;99.90;;;;;;5014618;28;20038;-81
2022/04/22 07:17:37;;;;;;;7.47;4.30;;;10.00;99.90;;;;;;5014485;28;20077;-82
2022/04/22 07:20:07;;;;;;;8.35;3.75;;;10.10;99.90;;;;;;5015844;28;20068;-80
2022/04/22 07:22:34;;;;;;;6.13;3.53;;;10.20;99.90;;;;;;5014274;28;20042;-82
2022/04/22 07:25:00;;;;;;;6.47;3.80;;;10.20;99.90;;;;;;5014596;28;20121;-81
2022/04/22 07:27:27;;;;;;;6.28;3.42;;;10.30;99.90;;;;;;5014320;28;20374;-83
2022/04/22 07:29:55;;;;;;;6.50;3.40;;;10.40;99.90;;;;;;5014687;28;20046;-83
2022/04/22 07:32:20;;;;;;;6.68;3.90;;;10.40;99.90;;;;;;5014206;28;20050;-81
2022/04/22 07:34:46;;;;;;;8.43;3.88;;;10.50;99.90;;;;;;5014967;28;20076;-82
2022/04/22 07:37:12;;;;;;;6.03;3.75;;;10.60;99.90;;;;;;5014375;28;20124;-83
2022/04/22 07:39:39;;;;;;;8.43;3.90;;;10.70;99.90;;;;;;5014234;28;20052;-82
2022/04/22 07:42:07;;;;;;;8.68;3.72;;;10.80;99.90;;;;;;5014711;28;20045;-82
2022/04/22 07:47:19;;;;;;;6.03;3.20;;;11.00;99.90;;;;;;5014172;28;20042;-83
2022/04/22 07:49:45;;;;;;;5.82;3.03;;;11.10;99.90;;;;;;5014235;28;20397;-80
2022/04/22 07:52:10;;;;;;;9.57;4.88;;;11.20;99.90;;;;;;4997815;28;20052;-81
2022/04/22 07:54:36;;;;;;;5.20;2.80;;;11.30;99.90;;;;;;5014812;28;20394;-82
2022/04/22 07:57:02;;;;;;;8.35;3.03;;;11.40;99.90;;;;;;5015641;28;20038;-80
2022/04/22 07:59:28;;;;;;;4.78;3.08;;;11.40;99.90;;;;;;5015021;28;20042;-81
2022/04/22 08:01:54;;;;;;;6.70;3.55;;;11.50;99.90;;;;;;5013770;28;20073;-80
2022/04/22 08:04:19;;;;;;;5.00;2.75;;;11.70;99.90;;;;;;4997386;28;20050;-83
2022/04/22 08:06:45;;;;;;;6.18;2.60;;;11.70;99.90;;;;;;5015188;28;20037;-81
2022/04/22 08:09:12;;;;;;;5.63;2.70;;;11.80;99.90;;;;;;5013927;28;20041;-83
2022/04/22 08:11:37;;;;;;;5.95;2.60;;;11.90;99.90;;;;;;5013526;28;20054;-82
2022/04/22 08:14:03;;;;;;;4.22;2.50;;;12.00;99.90;;;;;;4997109;28;20065;-81
2022/04/22 08:16:29;;;;;;;6.18;2.60;;;12.00;99.90;;;;;;5013736;28;20455;-80
2022/04/22 08:18:54;;;;;;;4.03;2.40;;;12.10;99.90;;;;;;5013386;28;20386;-82
2022/04/22 08:21:20;;;;;;;5.15;2.50;;;12.20;99.90;;;;;;5013338;28;20054;-83
2022/04/22 08:23:46;;;;;;;3.72;2.42;;;12.30;99.90;;;;;;4997143;28;20096;-81
2022/04/22 08:26:13;;;;;;;3.53;2.15;;;12.40;99.90;;;;;;5015069;28;20074;-82
2022/04/22 08:28:39;;;;;;;5.45;2.67;;;12.50;99.90;;;;;;5013607;28;20047;-81
2022/04/22 08:31:04;;;;;;;7.05;2.63;;;13.00;99.90;;;;;;4996997;28;20112;-82
2022/04/22 08:33:30;;;;;;;4.20;2.10;;;14.00;99.90;;;;;;5013164;28;20042;-81
2022/04/22 08:35:56;;;;;;;5.97;2.40;;;14.80;99.90;;;;;;5012867;28;20434;-82
2022/04/22 08:38:23;;;;;;;3.92;2.28;;;15.30;99.90;;;;;;5013629;28;20112;-83
2022/04/22 08:40:49;;;;;;;4.32;2.17;;;15.50;99.90;;;;;;5013578;28;20103;-82
2022/04/22 08:43:17;;;;;;;4.90;2.55;;;15.70;99.90;;;;;;5012932;28;20049;-80
2022/04/22 08:45:43;;;;;;;5.05;2.30;;;15.80;99.90;;;;;;5014457;28;20041;-81
2022/04/22 08:50:56;;;;;;;8.80;2.33;;;16.10;99.90;;;;;;5013780;28;20050;-83
2022/04/22 08:53:23;;;;;;;7.15;2.20;;;16.00;99.90;;;;;;5012782;28;20094;-79
2022/04/22 08:55:56;;;;;;;5.13;2.20;;;15.90;99.90;;;;;;5013507;28;20099;-83
2022/04/22 08:58:29;;;;;;;7.53;2.65;;;15.50;99.90;;;;;;5013974;28;20040;-83
2022/04/22 09:00:57;;;;;;;4.57;2.22;;;15.30;99.90;;;;;;5012649;28;20404;-82
2022/04/22 09:03:28;;;;;;;5.20;2.50;;;15.20;99.90;;;;;;5013240;28;20509;-84
2022/04/22 09:05:58;;;;;;;4.43;2.25;;;15.30;99.90;;;;;;5012704;28;20088;-82
2022/04/22 09:08:26;;;;;;;4.90;2.55;;;15.60;99.90;;;;;;5014644;28;20045;-83
2022/04/22 09:10:53;;;;;;;5.25;2.47;;;15.80;99.90;;;;;;5012968;28;20450;-82
2022/04/22 09:13:26;;;;;;;4.90;2.50;;;15.90;99.90;;;;;;5014270;28;20129;-82
2022/04/22 09:15:52;;;;;;;3.50;1.80;;;16.00;99.90;;;;;;4981023;28;20053;-83
2022/04/22 09:18:17;;;;;;;5.85;2.30;;;16.00;99.90;;;;;;5012955;28;20505;-82
2022/04/22 09:20:47;;;;;;;5.57;2.40;;;16.00;99.90;;;;;;5012684;28;20046;-81
2022/04/22 09:23:31;;;;;;;5.47;2.65;;;16.00;99.90;;;;;;4996627;28;20088;-82
2022/04/22 09:25:57;;;;;;;7.75;3.20;;;16.10;99.90;;;;;;5013600;28;20101;-83
2022/04/22 09:28:23;;;;;;;6.85;2.50;;;16.20;99.90;;;;;;5013277;28;20060;-82
2022/04/22 09:30:59;;;;;;;5.55;2.20;;;16.10;99.90;;;;;;5014578;28;20082;-84
2022/04/22 09:33:25;;;;;;;5.57;2.75;;;16.20;99.90;;;;;;4996330;28;20042;-82
2022/04/22 09:44:24;;;;;;;4.00;2.20;;;16.80;99.90;;;;;;5012710;28;20050;-82
2022/04/22 09:47:10;;;;;;;6.28;2.17;;;17.20;99.90;;;;;;5014165;28;20052;-81
2022/04/22 09:49:40;;;;;;;;;;;17.50;99.90;;;;;;5000897;28;20101;-82
2022/04/22 09:52:05;;;;;;;5.10;2.20;;;17.70;99.90;;;;;;5017660;28;20433;-82
2022/04/22 09:54:31;;;;;;;6.05;2.20;;;17.90;99.90;;;;;;5016156;28;20125;-82
2022/04/22 09:56:58;;;;;;;4.78;2.20;;;18.00;99.90;;;;;;5016644;28;20093;-81
2022/04/22 09:59:25;;;;;;;4.60;2.10;;;18.20;99.40;;;;;;5016477;28;20038;-83
2022/04/22 10:01:51;;;;;;;8.73;2.30;;;18.30;99.30;;;;;;5016097;28;20041;-81
2022/04/22 10:04:19;;;;;;;6.07;2.22;;;18.40;99.30;;;;;;5017310;28;20088;-84
2022/04/22 10:06:45;;;;;;;9.35;2.40;;;18.50;98.50;;;;;;5000025;28;20050;-81
2022/04/22 10:09:14;;;;;;;8.38;2.22;;;18.50;97.60;;;;;;5016206;28;20053;-84
2022/04/22 10:11:44;;;;;;;8.05;2.33;;;18.60;97.10;;;;;;5015541;28;20046;-82
2022/04/22 10:14:10;;;;;;;6.05;1.90;;;18.70;96.40;;;;;;5016710;28;20042;-81
2022/04/22 10:16:37;;;;;;;6.30;2.10;;;18.60;95.70;;;;;;5016138;28;20474;-82
2022/04/22 10:19:04;;;;;;;5.78;2.15;;;18.70;95.50;;;;;;4999505;28;20046;-83
2022/04/22 10:21:30;;;;;;;3.28;1.83;;;18.70;94.70;;;;;;5015858;28;20117;-83
2022/04/22 10:23:56;;;;;;;5.15;2.40;;;18.80;95.40;;;;;;5016564;28;20127;-82
2022/04/22 10:26:23;;;;;;;5.65;1.65;;;18.90;95.30;;;;;;5017044;28;20473;-82
2022/04/22 10:28:49;;;;;;;5.90;1.95;;;18.90;94.30;;;;;;5016796;28;20048;-82
2022/04/22 10:31:15;;;;;;;7.75;1.88;;;19.00;94.40;;;;;;5023585;28;20050;-79
2022/04/22 10:33:43;;;;;;;4.22;2.00;;;19.00;93.30;;;;;;5031274;28;20129;-83
2022/04/22 10:36:13;;;;;;;4.93;2.13;;;19.00;92.90;;;;;;5005523;28;20038;-80
2022/04/22 10:38:41;;;;;;;5.47;2.10;;;19.00;92.60;;;;;;5026254;28;20080;-82
2022/04/22 10:41:18;;;;;;;4.97;2.10;;;19.10;92.50;;;;;;5031160;28;20045;-81
2022/04/22 10:49:44;;;;;;;4.65;2.33;;;19.50;91.90;;;;;;5015954;28;20062;-82
2022/04/22 10:52:14;;;;;;;5.50;1.90;;;19.50;91.30;;;;;;5015583;28;20052;-82
2022/04/22 10:54:55;;;;;;;5.07;2.30;;;19.50;91.50;;;;;;5014931;28;20034;-83
2022/04/22 10:57:33;;;;;;;7.13;2.40;;;19.60;90.50;;;;;;5015501;28;20548;-81
2022/04/22 11:00:11;;;;;;;4.28;2.30;;;19.70;91.40;;;;;;5015243;28;20045;-82
2022/04/22 11:02:41;;;;;;;5.50;2.60;;;19.90;91.40;;;;;;5015132;28;20042;-82
2022/04/22 11:05:19;;;;;;;5.78;2.50;;;20.00;90.50;;;;;;5015112;28;20041;-81
2022/04/22 11:07:50;;;;;;;5.47;2.40;;;20.10;90.50;;;;;;5014969;28;20096;-82
2022/04/22 11:10:21;;;;;;;5.38;2.53;;;20.20;90.30;;;;;;5014674;28;20038;-83
2022/04/22 11:12:51;;;;;;;7.70;2.63;;;20.30;90.40;;;;;;4998538;28;20052;-83
2022/04/22 11:15:42;;;;;;;4.32;2.45;;;20.50;90.60;;;;;;5015221;28;20042;-81
2022/04/22 11:18:12;;;;;;;6.13;2.92;;;20.60;88.60;;;;;;5015139;28;20042;-82
2022/04/22 11:21:02;;;;;;;5.35;2.80;;;20.70;88.40;;;;;;5014927;28;20069;-81
2022/04/22 11:23:36;;;;;;;7.70;2.75;;;20.70;87.80;;;;;;5003792;28;20054;-83
2022/04/22 11:26:03;;;;;;;5.30;2.53;;;20.60;87.70;;;;;;5015006;28;20515;-82
2022/04/22 11:28:34;;;;;;;6.97;2.60;;;20.80;87.60;;;;;;5016492;28;20397;-83
2022/04/22 11:31:03;;;;;;;5.82;2.78;;;20.90;86.30;;;;;;5014977;28;20096;-82
2022/04/22 11:33:52;;;;;;;9.10;2.67;;;21.10;87.60;;;;;;5015767;28;20486;-84
2022/04/22 11:36:17;;;;;;;5.55;2.83;;;21.30;87.00;;;;;;4998258;28;20060;-82
2022/04/22 11:39:01;;;;;;;7.45;3.30;;;21.30;86.60;;;;;;5014745;28;20475;-83
2022/04/22 11:41:28;;;;;;;5.05;2.65;;;21.40;85.30;;;;;;5014593;28;20088;-83
2022/04/22 11:43:53;;;;;;;6.32;2.85;;;21.30;84.00;;;;;;5014555;28;20052;-83
2022/04/22 11:46:19;;;;;;;7.00;2.90;;;21.30;83.90;;;;;;5013957;28;20037;-83
2022/04/22 11:48:50;;;;;;;8.98;2.85;;;21.40;85.50;;;;;;5015223;28;20034;-84
2022/04/22 11:51:18;;;;;;;7.05;3.30;;;21.50;84.60;;;;;;5013944;28;20042;-82
2022/04/22 11:53:52;;;;;;;7.65;2.85;;;21.60;83.50;;;;;;5015512;28;20046;-81
2022/04/22 11:56:19;;;;;;;7.15;2.92;;;21.80;84.40;;;;;;5013725;28;20042;-82
2022/04/22 11:58:47;;;;;;;5.63;2.83;;;21.80;84.60;;;;;;5013632;28;20128;-83
2022/04/22 12:06:40;;;;;;;7.22;2.83;;;21.90;81.70;;;;;;5013644;28;20128;-83
2022/04/22 12:09:07;;;;;;;5.53;3.22;;;22.00;81.00;;;;;;5015066;28;20163;-82
2022/04/22 12:11:44;;;;;;;7.53;3.20;;;21.90;79.90;;;;;;5012553;28;20053;-82
2022/04/22 12:14:22;;;;;;;7.45;3.08;;;22.00;80.00;;;;;;4997152;28;20042;-82
2022/04/22 12:16:55;;;;;;;7.88;2.97;;;22.10;78.60;;;;;;5015242;28;20120;-81
2022/04/22 12:19:21;;;;;;;5.68;2.83;;;22.10;78.00;;;;;;5013997;28;20046;-82
2022/04/22 12:21:46;;;;;;;8.30;3.00;;;22.10;77.40;;;;;;5015033;28;20045;-82
2022/04/22 12:24:15;;;;;;;5.25;3.08;;;22.10;78.00;;;;;;4997622;28;20045;-82
2022/04/22 12:26:41;;;;;;;8.20;3.42;;;22.30;77.60;;;;;;4996828;28;20481;-81
2022/04/22 12:29:15;;;;;;;9.75;3.30;;;22.40;76.50;;;;;;5014793;28;20087;-78
2022/04/22 12:31:43;;;;;;;6.40;3.00;;;22.40;75.00;;;;;;4997042;28;20038;-81
2022/04/22 12:34:10;;;;;;;5.43;2.95;;;22.50;76.10;;;;;;5012993;28;20046;-83
2022/04/22 12:36:55;;;;;;;6.40;3.20;;;22.70;74.70;;;;;;5013037;28;20180;-81
2022/04/22 12:39:40;;;;;;;6.53;3.40;;;22.90;72.50;;;;;;5013477;28;20124;-80
2022/04/22 12:42:07;;;;;;;5.43;3.10;;;23.00;71.90;;;;;;5013165;28;20371;-82
2022/04/22 12:44:33;;;;;;;6.50;3.53;;;23.00;73.90;;;;;;5012916;28;20116;-82
2022/04/22 12:52:47;;;;;;;9.02;3.28;;;23.10;72.90;;;;;;5013017;28;20375;-82
2022/04/22 12:55:17;;;;;;;7.05;3.30;;;23.10;72.20;;;;;;4996888;28;20052;-85
2022/04/22 12:57:42;;;;;;;4.78;2.97;;;23.10;69.30;;;;;;5012890;28;20129;-81
2022/04/22 13:00:15;;;;;;;6.43;3.20;;;23.30;69.50;;;;;;5012523;28;20080;-84
2022/04/22 13:02:41;;;;;;;6.82;3.20;;;23.20;68.30;;;;;;5012262;28;20044;-82
2022/04/22 13:05:14;;;;;;;7.47;3.83;;;23.40;69.60;;;;;;5012658;28;20125;-82
2022/04/22 13:07:43;;;;;;;6.32;3.50;;;23.40;69.70;;;;;;5012882;28;20045;-83
2022/04/22 13:10:22;;;;;;;6.40;3.55;;;23.70;69.50;;;;;;4995906;28;20049;-83
2022/04/22 13:12:48;;;;;;;6.90;3.17;;;23.70;67.70;;;;;;5013693;28;20103;-82
2022/04/22 13:15:18;;;;;;;5.43;3.15;;;23.40;68.60;;;;;;5012448;28;20093;-83
2022/04/22 13:17:51;;;;;;;7.15;3.80;;;22.90;69.10;;;;;;4995893;28;20042;-83
2022/04/22 13:20:18;;;;;;;5.63;3.70;;;22.30;67.20;;;;;;5012693;28;20533;-83
2022/04/22 13:22:45;;;;;;;8.55;3.17;;;21.90;68.90;;;;;;5012517;28;20046;-83
2022/04/22 13:25:12;;;;;;;7.35;3.65;;;21.80;70.00;;;;;;5013422;28;20038;-83
2022/04/22 13:27:41;;;;;;;5.55;3.90;;;21.80;69.90;;;;;;5013562;28;20037;-83
2022/04/22 13:30:09;;;;;;;10.02;4.22;;;21.70;70.60;;;;;;5013331;28;20498;-84
2022/04/22 13:32:38;;;;;;;10.43;3.92;;;21.30;71.00;;;;;;5013684;28;20133;-83
2022/04/22 13:35:05;;;;;;;7.35;4.03;;;21.00;71.50;;;;;;5013647;28;20041;-83
2022/04/22 13:37:32;;;;;;;9.70;4.00;;;21.20;72.20;;;;;;4996936;28;20437;-85
2022/04/22 13:39:58;;;;;;;7.90;3.85;;;21.40;72.40;;;;;;5013652;28;20069;-83
2022/04/22 13:42:24;;;;;;;6.28;3.97;;;21.30;71.80;;;;;;5013004;28;20125;-83
2022/04/22 13:53:02;;;;;;;7.25;4.03;;;21.90;71.60;;;;;;5012520;28;20046;-82
2022/04/22 13:55:28;;;;;;;8.23;4.80;;;21.90;71.50;;;;;;4996338;28;20049;-83
2022/04/22 13:57:54;;;;;;;13.05;4.78;;;21.70;71.30;;;;;;5012580;28;20030;-83
2022/04/22 14:00:19;;;;;;;9.77;5.28;;;21.50;71.40;;;;;;5013087;28;20097;-81
2022/04/22 14:02:45;;;;;;;11.45;5.28;;;21.40;72.10;;;;;;5012280;28;20049;-80
2022/04/22 14:05:11;;;;;;;9.38;4.93;;;21.30;71.80;;;;;;5012951;28;20044;-84
2022/04/22 14:07:36;;;;;;;10.48;4.80;;;21.20;72.60;;;;;;5012919;28;20042;-83
2022/04/22 14:10:03;;;;;;;7.65;4.80;;;21.30;72.40;;;;;;5014151;28;20079;-84
2022/04/22 14:12:30;;;;;;;11.45;5.05;;;21.20;72.10;;;;;;5012891;28;20034;-82
2022/04/22 14:14:55;;;;;;;7.80;4.90;;;21.60;73.40;;;;;;5012684;28;20050;-83
2022/04/22 14:17:21;;;;;;;10.00;5.43;;;21.90;73.70;;;;;;5012865;28;20042;-83
2022/04/22 14:19:47;;;;;;;8.07;5.10;;;22.20;74.10;;;;;;5012642;28;20160;-84
2022/04/22 14:22:13;;;;;;;9.73;5.18;;;22.40;73.00;;;;;;5012299;28;20076;-83
2022/04/22 14:24:40;;;;;;;7.85;4.57;;;22.40;72.30;;;;;;5012890;28;20045;-84
2022/04/22 14:27:07;;;;;;;12.52;5.22;;;22.50;72.20;;;;;;5012059;28;20053;-84
2022/04/22 14:29:36;;;;;;;8.98;5.35;;;22.60;72.80;;;;;;4995985;28;20072;-81
2022/04/22 14:32:02;;;;;;;7.40;5.00;;;22.40;70.50;;;;;;5013597;28;20489;-83
2022/04/22 14:34:28;;;;;;;11.77;5.07;;;22.40;71.60;;;;;;5014607;28;20046;-83
2022/04/22 14:36:53;;;;;;;8.45;5.38;;;22.20;71.70;;;;;;5016098;28;20417;-80
2022/04/22 14:39:19;;;;;;;9.38;4.95;;;21.80;71.20;;;;;;5015894;28;20096;-81
2022/04/22 14:41:48;;;;;;;7.53;5.20;;;21.60;70.60;;;;;;4999016;28;20537;-82
2022/04/22 14:44:17;;;;;;;8.15;4.75;;;21.30;70.70;;;;;;5017470;28;20065;-84
2022/04/22 14:46:43;;;;;;;6.50;4.75;;;21.10;70.80;;;;;;5015733;28;20100;-82
2022/04/22 14:49:14;;;;;;;7.88;4.88;;;20.90;71.10;;;;;;5015356;28;20049;-83
2022/04/22 14:51:40;;;;;;;12.57;5.03;;;20.70;71.50;;;;;;4999079;28;20048;-82
2022/04/22 14:54:06;;;;;;;9.40;5.10;;;20.90;72.20;;;;;;5015687;28;20046;-82
2022/04/22 14:56:31;;;;;;;9.55;5.00;;;21.30;72.70;;;;;;5015427;28;20124;-83
2022/04/22 14:58:57;;;;;;;7.85;4.72;;;21.70;71.40;;;;;;5015842;28;20033;-82
2022/04/22 15:01:22;;;;;;;9.10;4.45;;;22.00;70.60;;;;;;5016548;28;20038;-82
2022/04/22 15:03:48;;;;;;;8.48;4.57;;;22.20;69.90;;;;;;5015376;28;20123;-83
2022/04/22 15:06:13;;;;;;;9.45;4.70;;;22.30;68.50;;;;;;5015153;28;20042;-82
2022/04/22 15:08:39;;;;;;;8.93;4.53;;;22.50;68.70;;;;;;5015905;28;20064;-82
2022/04/22 15:11:04;;;;;;;10.90;4.80;;;22.70;68.80;;;;;;5015249;28;20045;-83
2022/04/22 15:13:34;;;;;;;6.30;4.68;;;22.50;68.60;;;;;;5015014;28;20100;-84
2022/04/22 15:16:00;;;;;;;9.70;4.47;;;22.10;68.40;;;;;;5014730;28;20121;-81
2022/04/22 15:24:10;;;;;;;9.00;4.65;;;21.40;70.90;;;;;;5014500;28;20046;-82
2022/04/22 15:26:37;;;;;;;6.68;3.75;;;21.30;71.00;;;;;;5014838;28;20525;-81
2022/04/22 15:29:06;;;;;;;7.68;3.45;;;21.00;69.80;;;;;;4998236;28;20045;-83
2022/04/22 15:31:32;;;;;;;6.78;3.92;;;20.90;70.00;;;;;;5014649;28;20445;-81
2022/04/22 15:33:58;;;;;;;9.32;3.80;;;21.00;70.10;;;;;;5014781;28;20046;-82
2022/04/22 15:36:24;;;;;;;8.80;4.20;;;20.90;70.40;;;;;;5015969;28;20414;-83
2022/04/22 15:38:50;;;;;;;7.25;4.38;;;20.70;70.50;;;;;;5014524;28;20034;-83
2022/04/22 15:41:20;;;;;;;7.05;4.03;;;20.60;71.40;;;;;;5014376;28;20092;-83
2022/04/22 15:43:50;;;;;;;7.00;3.90;;;20.90;71.70;;;;;;5014399;28;20130;-80
2022/04/22 15:46:17;;;;;;;7.13;3.80;;;21.10;71.50;;;;;;5013582;28;20081;-81
2022/04/22 15:48:43;;;;;;;9.27;3.58;;;20.90;71.20;;;;;;4997879;28;20045;-83
2022/04/22 15:51:10;;;;;;;9.13;3.35;;;20.60;69.90;;;;;;5014447;28;20042;-83
2022/04/22 15:53:37;;;;;;;7.13;3.17;;;20.40;69.80;;;;;;5014489;28;20104;-83
2022/04/22 15:56:04;;;;;;;5.18;3.38;;;20.20;70.70;;;;;;5014860;28;20042;-83
2022/04/22 15:58:30;;;;;;;8.02;2.90;;;20.10;70.70;;;;;;5014424;28;20125;-82
2022/04/22 16:00:57;;;;;;;7.07;3.05;;;20.10;71.10;;;;;;5015773;28;20112;-82
2022/04/22 16:03:23;;;;;;;5.63;3.30;;;20.10;70.90;;;;;;5013915;28;20049;-82
2022/04/22 16:05:49;;;;;;;7.40;3.28;;;20.10;70.70;;;;;;5014207;28;20334;-83
2022/04/22 16:08:16;;;;;;;5.60;3.10;;;20.20;71.00;;;;;;4997835;28;20050;-83
2022/04/22 16:10:42;;;;;;;9.80;3.08;;;20.50;71.10;;;;;;5014069;28;20117;-81
2022/04/22 16:15:53;;;;;;;7.65;3.30;;;20.50;70.20;;;;;;5014059;28;20054;-83
2022/04/22 16:18:20;;;;;;;8.30;3.58;;;20.20;70.80;;;;;;4998184;28;20046;-83
2022/04/22 16:20:46;;;;;;;7.43;3.88;;;20.00;71.50;;;;;;5013723;28;20049;-82
2022/04/22 16:23:12;;;;;;;8.60;3.67;;;19.90;72.20;;;;;;5014456;28;20042;-84
2022/04/22 16:25:37;;;;;;;7.03;3.30;;;19.90;72.90;;;;;;5014263;28;20044;-82
2022/04/22 16:28:03;;;;;;;6.20;3.30;;;20.00;73.40;;;;;;5013985;28;20092;-84
2022/04/22 16:30:31;;;;;;;6.90;3.50;;;20.20;73.70;;;;;;5013760;28;20085;-82
2022/04/22 16:32:59;;;;;;;6.65;3.38;;;20.00;73.40;;;;;;5013415;28;20486;-83
2022/04/22 16:35:25;;;;;;;10.57;3.30;;;19.80;73.50;;;;;;5012997;28;20072;-81
2022/04/22 16:37:50;;;;;;;6.95;3.45;;;19.60;73.40;;;;;;5015113;28;20430;-81
2022/04/22 16:40:16;;;;;;;7.13;3.45;;;19.50;73.80;;;;;;5013858;28;20041;-80
2022/04/22 16:42:42;;;;;;;7.47;3.10;;;19.40;74.30;;;;;;5013153;28;20042;-82
2022/04/22 16:45:12;;;;;;;5.32;3.20;;;19.60;74.30;;;;;;5013829;28;20073;-82
2022/04/22 16:47:38;;;;;;;6.78;3.40;;;19.70;74.10;;;;;;5013069;28;20069;-82
2022/04/22 16:50:07;;;;;;;8.60;3.60;;;19.80;73.90;;;;;;5013097;28;20531;-84
2022/04/22 16:52:33;;;;;;;6.55;3.35;;;19.80;74.20;;;;;;5013123;28;20045;-81
2022/04/22 16:54:59;;;;;;;9.10;3.58;;;19.80;74.20;;;;;;5014398;28;20049;-82
2022/04/22 16:57:25;;;;;;;7.60;3.30;;;19.90;74.30;;;;;;5012951;28;20049;-83
2022/04/22 16:59:51;;;;;;;10.85;3.38;;;19.90;74.20;;;;;;5013127;28;20124;-79
2022/04/22 17:02:17;;;;;;;6.40;3.05;;;20.00;74.10;;;;;;5012775;28;20533;-82
2022/04/22 17:04:49;;;;;;;8.18;3.40;;;20.20;74.10;;;;;;5013010;28;20486;-81